Time;durP1;ratioP1;P1;durP2;ratioP2;P2;SDS_P1;SDS_P2;PMS_P1;PMS_P2;Temp;Humidity;BMP_temperature;BMP_pressure;BME280_temperature;BME280_humidity;BME280_pressure;Samples;Min_cycle;Max_cycle;Signal;HPM_P1;HPM_P2
2021/09/11 00:01:55;;;;;;;;;;;;;;;;;;10430905;28;19966;-64
2021/09/11 00:06:53;;;;;;;;;;;;;;;;;;10411767;28;20243;-64
2021/09/11 00:11:50;;;;;;;;;;;;;;;;;;10430642;28;19918;-65
2021/09/11 00:16:47;;;;;;;;;;;;;;;;;;10429824;28;19919;-64
2021/09/11 00:21:44;;;;;;;;;;;;;;;;;;10429957;28;19919;-64
2021/09/11 00:26:42;;;;;;;;;;;;;;;;;;10419229;28;19919;-62
2021/09/11 00:31:39;;;;;;;;;;;;;;;;;;10384406;28;19965;-61
2021/09/11 00:36:36;;;;;;;;;;;;;;;;;;10408416;28;19958;-60
2021/09/11 00:41:34;;;;;;;;;;;;;;;;;;10419564;28;19927;-61
2021/09/11 00:46:31;;;;;;;;;;;;;;;;;;10403550;28;19915;-61
2021/09/11 00:51:28;;;;;;;;;;;;;;;;;;10407035;28;19961;-61
2021/09/11 00:56:26;;;;;;;;;;;;;;;;;;10402680;28;19912;-61
2021/09/11 01:01:23;;;;;;;;;;;;;;;;;;10401729;28;19912;-61
2021/09/11 01:06:20;;;;;;;;;;;;;;;;;;10413096;28;20027;-62
2021/09/11 01:11:18;;;;;;;;;;;;;;;;;;10410690;28;19927;-61
2021/09/11 01:16:15;;;;;;;;;;;;;;;;;;10407046;28;19916;-61
2021/09/11 01:21:12;;;;;;;;;;;;;;;;;;10379003;28;19942;-61
2021/09/11 01:26:09;;;;;;;;;;;;;;;;;;10402915;28;19977;-61
2021/09/11 01:31:07;;;;;;;;;;;;;;;;;;10408547;28;20419;-61
2021/09/11 01:36:04;;;;;;;;;;;;;;;;;;10400454;28;20266;-61
2021/09/11 01:41:01;;;;;;;;;;;;;;;;;;10423110;28;19916;-61
2021/09/11 01:45:58;;;;;;;;;;;;;;;;;;10395675;28;19924;-61
2021/09/11 01:50:56;;;;;;;;;;;;;;;;;;10399521;28;19912;-62
2021/09/11 01:55:53;;;;;;;;;;;;;;;;;;10410080;28;19971;-61
2021/09/11 02:00:50;;;;;;;;;;;;;;;;;;10417762;28;19923;-62
2021/09/11 02:05:49;;;;;;;;;;;;;;;;;;10428774;28;19920;-62
2021/09/11 02:10:46;;;;;;;;;;;;;;;;;;10411551;28;19912;-62
2021/09/11 02:15:43;;;;;;;;;;;;;;;;;;10403480;28;19912;-62
2021/09/11 02:20:40;;;;;;;;;;;;;;;;;;10398013;28;19921;-62
2021/09/11 02:25:38;;;;;;;;;;;;;;;;;;10398096;28;19916;-62
2021/09/11 02:30:35;;;;;;;;;;;;;;;;;;10428935;28;19916;-62
2021/09/11 02:35:32;;;;;;;;;;;;;;;;;;10430188;28;20354;-62
2021/09/11 02:40:30;;;;;;;;;;;;;;;;;;10400406;28;19920;-62
2021/09/11 02:45:27;;;;;;;;;;;;;;;;;;10414486;28;19916;-62
2021/09/11 02:50:24;;;;;;;;;;;;;;;;;;10409196;22;20327;-64
2021/09/11 02:55:22;;;;;;;;;;;;;;;;;;10371549;28;19916;-63
2021/09/11 03:00:19;;;;;;;;;;;;;;;;;;10389132;28;20030;-63
2021/09/11 03:05:16;;;;;;;;;;;;;;;;;;10365172;28;20373;-64
2021/09/11 03:10:13;;;;;;;;;;;;;;;;;;10371759;28;19916;-64
2021/09/11 03:15:12;;;;;;;;;;;;;;;;;;10362982;28;19923;-64
2021/09/11 03:20:09;;;;;;;;;;;;;;;;;;10387324;28;19950;-64
2021/09/11 03:25:06;;;;;;;;;;;;;;;;;;10371097;28;20385;-64
2021/09/11 03:30:03;;;;;;;;;;;;;;;;;;10369364;28;19955;-64
2021/09/11 03:35:01;;;;;;;;;;;;;;;;;;10354815;28;19912;-64
2021/09/11 03:39:58;;;;;;;;;;;;;;;;;;10360746;28;19919;-64
2021/09/11 03:44:56;;;;;;;;;;;;;;;;;;10363915;28;19977;-64
2021/09/11 03:49:53;;;;;;;;;;;;;;;;;;10328348;28;19943;-63
2021/09/11 03:54:50;;;;;;;;;;;;;;;;;;10386552;28;19919;-64
2021/09/11 03:59:47;;;;;;;;;;;;;;;;;;10355211;28;19917;-63
2021/09/11 04:04:45;;;;;;;;;;;;;;;;;;10346329;28;20251;-63
2021/09/11 04:09:42;;;;;;;;;;;;;;;;;;10372161;28;20373;-63
2021/09/11 04:14:39;;;;;;;;;;;;;;;;;;10368149;28;19947;-64
2021/09/11 04:19:36;;;;;;;;;;;;;;;;;;10342774;28;19916;-63
2021/09/11 04:24:34;;;;;;;;;;;;;;;;;;10359029;28;19963;-65
2021/09/11 04:29:31;;;;;;;;;;;;;;;;;;10356572;28;20370;-64
2021/09/11 04:34:28;;;;;;;;;;;;;;;;;;10363688;28;19916;-65
2021/09/11 04:39:25;;;;;;;;;;;;;;;;;;10372850;28;19916;-64
2021/09/11 04:44:23;;;;;;;;;;;;;;;;;;10332500;28;19982;-65
2021/09/11 04:49:20;;;;;;;;;;;;;;;;;;10367954;28;19970;-63
2021/09/11 04:54:18;;;;;;;;;;;;;;;;;;10363942;28;19913;-64
2021/09/11 04:59:15;;;;;;;;;;;;;;;;;;10339438;28;20011;-64
2021/09/11 05:04:12;;;;;;;;;;;;;;;;;;10364174;28;19939;-64
2021/09/11 05:09:09;;;;;;;;;;;;;;;;;;10366797;28;20373;-64
2021/09/11 05:14:07;;;;;;;;;;;;;;;;;;10376947;28;19916;-64
2021/09/11 05:19:04;;;;;;;;;;;;;;;;;;10372620;28;19912;-64
2021/09/11 05:24:01;;;;;;;;;;;;;;;;;;10371243;28;20352;-63
2021/09/11 05:28:58;;;;;;;;;;;;;;;;;;10366647;28;19913;-62
2021/09/11 05:33:56;;;;;;;;;;;;;;;;;;10362771;28;20327;-62
2021/09/11 05:38:53;;;;;;;;;;;;;;;;;;10362566;28;19916;-64
2021/09/11 05:43:51;;;;;;;;;;;;;;;;;;10379230;28;19916;-64
2021/09/11 05:48:48;;;;;;;;;;;;;;;;;;10353597;28;19923;-64
2021/09/11 05:53:45;;;;;;;;;;;;;;;;;;10376701;28;20404;-63
2021/09/11 05:58:43;;;;;;;;;;;;;;;;;;10352118;28;20051;-64
2021/09/11 06:03:40;;;;;;;;;;;;;;;;;;10327829;22;19925;-63
2021/09/11 06:08:37;;;;;;;;;;;;;;;;;;10263985;28;19924;-62
2021/09/11 06:13:35;;;;;;;;;;;;;;;;;;10297206;28;20469;-62
2021/09/11 06:18:32;;;;;;;;;;;;;;;;;;10293884;28;20020;-62
2021/09/11 06:23:29;;;;;;;;;;;;;;;;;;10299789;28;20259;-63
2021/09/11 06:28:26;;;;;;;;;;;;;;;;;;10292659;28;19912;-63
2021/09/11 06:33:24;;;;;;;;;;;;;;;;;;10274612;23;20010;-66
2021/09/11 06:38:21;;;;;;;;;;;;;;;;;;10222192;28;19913;-65
2021/09/11 06:43:18;;;;;;;;;;;;;;;;;;10208884;28;19937;-65
2021/09/11 06:48:16;;;;;;;;;;;;;;;;;;10202046;28;19922;-65
2021/09/11 06:53:13;;;;;;;;;;;;;;;;;;10228125;28;20317;-65
2021/09/11 06:58:10;;;;;;;;;;;;;;;;;;10262603;28;19986;-65
2021/09/11 07:03:07;;;;;;;;;;;;;;;;;;10240745;28;19917;-64
2021/09/11 07:08:05;;;;;;;;;;;;;;;;;;10233905;28;20383;-65
2021/09/11 07:13:02;;;;;;;;;;;;;;;;;;10233710;28;20012;-64
2021/09/11 07:17:59;;;;;;;;;;;;;;;;;;10258119;28;19917;-65
2021/09/11 07:22:57;;;;;;;;;;;;;;;;;;10245086;28;19921;-65
2021/09/11 07:27:54;;;;;;;;;;;;;;;;;;10243473;28;19964;-65
2021/09/11 07:32:52;;;;;;;;;;;;;;;;;;10250837;28;19917;-64
2021/09/11 07:37:49;;;;;;;;;;;;;;;;;;10243556;28;20334;-65
2021/09/11 07:42:47;;;;;;;;;;;;;;;;;;10257712;28;19917;-64
2021/09/11 07:47:44;;;;;;;;;;;;;;;;;;10244537;28;20012;-64
2021/09/11 07:52:41;;;;;;;;;;;;;;;;;;10239474;28;19957;-65
2021/09/11 07:57:38;;;;;;;;;;;;;;;;;;10250036;28;19913;-65
2021/09/11 08:02:36;;;;;;;;;;;;;;;;;;10251069;28;19919;-65
2021/09/11 08:07:33;;;;;;;;;;;;;;;;;;10247552;28;19921;-64
2021/09/11 08:12:30;;;;;;;;;;;;;;;;;;10235092;28;19947;-64
2021/09/11 08:17:27;;;;;;;;;;;;;;;;;;10240848;28;20049;-65
2021/09/11 08:22:25;;;;;;;;;;;;;;;;;;10229185;28;20366;-64
2021/09/11 08:27:22;;;;;;;;;;;;;;;;;;10227206;28;19921;-65
2021/09/11 08:32:19;;;;;;;;;;;;;;;;;;10236361;28;20397;-64
2021/09/11 08:37:17;;;;;;;;;;;;;;;;;;10239613;28;20341;-65
2021/09/11 08:42:14;;;;;;;;;;;;;;;;;;10248709;28;19913;-64
2021/09/11 08:47:11;;;;;;;;;;;;;;;;;;10233357;28;19918;-65
2021/09/11 08:52:08;;;;;;;;;;;;;;;;;;10233632;28;19919;-64
2021/09/11 08:57:06;;;;;;;;;;;;;;;;;;10229173;28;19992;-66
2021/09/11 09:02:05;;;;;;;;;;;;;;;;;;10229672;28;19913;-65
2021/09/11 09:07:02;;;;;;;;;;;;;;;;;;10245746;28;19917;-65
2021/09/11 09:11:59;;;;;;;;;;;;;;;;;;10233846;28;19932;-64
2021/09/11 09:16:58;;;;;;;;;;;;;;;;;;10230008;28;19972;-65
2021/09/11 09:21:55;;;;;;;;;;;;;;;;;;10239391;28;19975;-65
2021/09/11 09:26:52;;;;;;;;;;;;;;;;;;10239952;28;20387;-64
2021/09/11 09:31:49;;;;;;;;;;;;;;;;;;10230745;28;19984;-66
2021/09/11 09:36:47;;;;;;;;;;;;;;;;;;10232797;28;19917;-65
2021/09/11 09:41:44;;;;;;;;;;;;;;;;;;10222075;28;20577;-66
2021/09/11 09:46:41;;;;;;;;;;;;;;;;;;10216646;28;19937;-65
2021/09/11 09:51:39;;;;;;;;;;;;;;;;;;10251474;28;19918;-64
2021/09/11 09:56:36;;;;;;;;;;;;;;;;;;10244127;28;20370;-64
2021/09/11 10:01:33;;;;;;;;;;;;;;;;;;10234929;28;19914;-65
2021/09/11 10:06:31;;;;;;;;;;;;;;;;;;10243104;28;19917;-63
2021/09/11 10:11:28;;;;;;;;;;;;;;;;;;10236624;28;19917;-64
2021/09/11 10:16:26;;;;;;;;;;;;;;;;;;10242349;28;20310;-65
2021/09/11 10:21:25;;;;;;;;;;;;;;;;;;10258062;28;19913;-65
2021/09/11 10:26:22;;;;;;;;;;;;;;;;;;10251000;28;19932;-65
2021/09/11 10:31:19;;;;;;;;;;;;;;;;;;10250052;28;19921;-66
2021/09/11 10:36:17;;;;;;;;;;;;;;;;;;10233071;28;19921;-65
2021/09/11 10:41:14;;;;;;;;;;;;;;;;;;10245163;28;19913;-64
2021/09/11 10:46:12;;;;;;;;;;;;;;;;;;10257035;28;19921;-66
2021/09/11 10:51:09;;;;;;;;;;;;;;;;;;10251768;28;20003;-65
2021/09/11 10:56:06;;;;;;;;;;;;;;;;;;10252490;28;19914;-65
2021/09/11 11:01:04;;;;;;;;;;;;;;;;;;10226129;28;20613;-66
2021/09/11 11:06:01;;;;;;;;;;;;;;;;;;10244630;28;19979;-67
2021/09/11 11:10:58;;;;;;;;;;;;;;;;;;10236912;28;19944;-66
2021/09/11 11:15:55;;;;;;;;;;;;;;;;;;10244097;28;19920;-66
2021/09/11 11:20:53;;;;;;;;;;;;;;;;;;10231893;28;19914;-65
2021/09/11 11:25:50;;;;;;;;;;;;;;;;;;10234311;28;19924;-66
2021/09/11 11:30:50;;;;;;;;;;;;;;;;;;10248738;28;20417;-65
2021/09/11 11:35:47;;;;;;;;;;;;;;;;;;10237362;28;19921;-66
2021/09/11 11:40:45;;;;;;;;;;;;;;;;;;10258041;28;19917;-66
2021/09/11 11:45:42;;;;;;;;;;;;;;;;;;10239850;28;20457;-67
2021/09/11 11:50:39;;;;;;;;;;;;;;;;;;10246768;28;19914;-66
2021/09/11 11:55:37;;;;;;;;;;;;;;;;;;10243534;28;19921;-66
2021/09/11 12:00:34;;;;;;;;;;;;;;;;;;10252273;28;19921;-66
2021/09/11 12:05:31;;;;;;;;;;;;;;;;;;10248688;28;20378;-66
2021/09/11 12:10:29;;;;;;;;;;;;;;;;;;10237437;28;19924;-67
2021/09/11 12:15:28;;;;;;;;;;;;;;;;;;10228015;28;20506;-65
2021/09/11 12:20:26;;;;;;;;;;;;;;;;;;10249865;28;19921;-66
2021/09/11 12:25:23;;;;;;;;;;;;;;;;;;10229164;28;19917;-67
2021/09/11 12:30:20;;;;;;;;;;;;;;;;;;10239806;28;20417;-65
2021/09/11 12:35:17;;;;;;;;;;;;;;;;;;10209982;28;19917;-66
2021/09/11 12:40:15;;;;;;;;;;;;;;;;;;10240403;28;19921;-66
2021/09/11 12:45:12;;;;;;;;;;;;;;;;;;10246263;28;19929;-65
2021/09/11 12:50:09;;;;;;;;;;;;;;;;;;10242129;28;20012;-66
2021/09/11 12:55:06;;;;;;;;;;;;;;;;;;10246051;28;20443;-65
2021/09/11 13:00:04;;;;;;;;;;;;;;;;;;10238140;28;19917;-66
2021/09/11 13:05:01;;;;;;;;;;;;;;;;;;10240067;28;20341;-65
2021/09/11 13:09:58;;;;;;;;;;;;;;;;;;10235117;28;19920;-65
2021/09/11 13:14:55;;;;;;;;;;;;;;;;;;10232128;28;19924;-65
2021/09/11 13:19:53;;;;;;;;;;;;;;;;;;10211082;28;19913;-66
2021/09/11 13:24:50;;;;;;;;;;;;;;;;;;10240233;28;20077;-66
2021/09/11 13:29:47;;;;;;;;;;;;;;;;;;10251270;28;19914;-65
2021/09/11 13:34:45;;;;;;;;;;;;;;;;;;10246755;28;19929;-66
2021/09/11 13:39:42;;;;;;;;;;;;;;;;;;10220235;28;19920;-65
2021/09/11 13:44:40;;;;;;;;;;;;;;;;;;10241368;28;20062;-65
2021/09/11 13:49:39;;;;;;;;;;;;;;;;;;10247767;28;19928;-66
2021/09/11 13:54:36;;;;;;;;;;;;;;;;;;10239331;28;19920;-67
2021/09/11 13:59:34;;;;;;;;;;;;;;;;;;10242304;28;19914;-64
2021/09/11 14:04:31;;;;;;;;;;;;;;;;;;10255227;28;20013;-65
2021/09/11 14:09:28;;;;;;;;;;;;;;;;;;10228592;28;20385;-67
2021/09/11 14:14:26;;;;;;;;;;;;;;;;;;10221234;28;19921;-66
2021/09/11 14:19:23;;;;;;;;;;;;;;;;;;10237426;28;19920;-65
2021/09/11 14:24:21;;;;;;;;;;;;;;;;;;10251090;28;19976;-64
2021/09/11 14:29:21;;;;;;;;;;;;;;;;;;10240513;28;19919;-64
2021/09/11 14:34:18;;;;;;;;;;;;;;;;;;10243863;28;20276;-64
2021/09/11 14:39:15;;;;;;;;;;;;;;;;;;10239952;28;19913;-64
2021/09/11 14:44:12;;;;;;;;;;;;;;;;;;10250552;28;19921;-64
2021/09/11 14:49:10;;;;;;;;;;;;;;;;;;10245990;28;19917;-64
2021/09/11 14:54:07;;;;;;;;;;;;;;;;;;10247427;28;19914;-65
2021/09/11 14:59:04;;;;;;;;;;;;;;;;;;10244359;28;19914;-64
2021/09/11 15:04:01;;;;;;;;;;;;;;;;;;10240404;28;19921;-66
2021/09/11 15:08:59;;;;;;;;;;;;;;;;;;10248928;28;19936;-65
2021/09/11 15:13:56;;;;;;;;;;;;;;;;;;10248918;28;20007;-65
2021/09/11 15:18:54;;;;;;;;;;;;;;;;;;10227232;28;19913;-64
2021/09/11 15:23:51;;;;;;;;;;;;;;;;;;10242369;28;20379;-65
2021/09/11 15:28:48;;;;;;;;;;;;;;;;;;10238721;28;19914;-64
2021/09/11 15:33:45;;;;;;;;;;;;;;;;;;10227231;28;19913;-65
2021/09/11 15:38:43;;;;;;;;;;;;;;;;;;10238382;28;20450;-64
2021/09/11 15:43:40;;;;;;;;;;;;;;;;;;10233581;28;19924;-65
2021/09/11 15:48:37;;;;;;;;;;;;;;;;;;10222051;28;20398;-65
2021/09/11 15:53:34;;;;;;;;;;;;;;;;;;10219652;28;19914;-65
2021/09/11 15:58:32;;;;;;;;;;;;;;;;;;10240953;28;19913;-65
2021/09/11 16:03:29;;;;;;;;;;;;;;;;;;10247539;28;19932;-64
2021/09/11 16:08:26;;;;;;;;;;;;;;;;;;10251939;28;20379;-65
2021/09/11 16:13:24;;;;;;;;;;;;;;;;;;10235449;28;19917;-65
2021/09/11 16:18:21;;;;;;;;;;;;;;;;;;10248000;28;19913;-64
2021/09/11 16:23:19;;;;;;;;;;;;;;;;;;10228750;28;20008;-64
2021/09/11 16:28:16;;;;;;;;;;;;;;;;;;10247602;28;20302;-64
2021/09/11 16:33:13;;;;;;;;;;;;;;;;;;10253455;28;19913;-64
2021/09/11 16:38:10;;;;;;;;;;;;;;;;;;10229151;28;19969;-64
2021/09/11 16:43:08;;;;;;;;;;;;;;;;;;10231970;28;19933;-65
2021/09/11 16:48:05;;;;;;;;;;;;;;;;;;10240510;28;19906;-64
2021/09/11 16:53:02;;;;;;;;;;;;;;;;;;10244775;28;19916;-64
2021/09/11 16:58:00;;;;;;;;;;;;;;;;;;10242027;28;20445;-65
2021/09/11 17:02:57;;;;;;;;;;;;;;;;;;10229859;28;19906;-65
2021/09/11 17:07:54;;;;;;;;;;;;;;;;;;10237525;28;19924;-65
2021/09/11 17:12:52;;;;;;;;;;;;;;;;;;10224129;28;19918;-65
2021/09/11 17:17:50;;;;;;;;;;;;;;;;;;10236141;28;19913;-64
2021/09/11 17:22:47;;;;;;;;;;;;;;;;;;10233213;28;19949;-65
2021/09/11 17:27:46;;;;;;;;;;;;;;;;;;10225533;28;20008;-65
2021/09/11 17:32:44;;;;;;;;;;;;;;;;;;10238364;28;20395;-64
2021/09/11 17:37:41;;;;;;;;;;;;;;;;;;10239846;28;19941;-63
2021/09/11 17:42:38;;;;;;;;;;;;;;;;;;10255031;28;19921;-65
2021/09/11 17:47:36;;;;;;;;;;;;;;;;;;10243843;28;19917;-63
2021/09/11 17:52:33;;;;;;;;;;;;;;;;;;10240596;28;19987;-64
2021/09/11 17:57:30;;;;;;;;;;;;;;;;;;10239151;28;19968;-64
2021/09/11 18:02:27;;;;;;;;;;;;;;;;;;10245509;28;20307;-64
2021/09/11 18:07:25;;;;;;;;;;;;;;;;;;10232267;28;19932;-65
2021/09/11 18:12:22;;;;;;;;;;;;;;;;;;10241879;28;19914;-65
2021/09/11 18:17:19;;;;;;;;;;;;;;;;;;10237505;28;20318;-65
2021/09/11 18:22:16;;;;;;;;;;;;;;;;;;10258859;28;19921;-65
2021/09/11 18:27:14;;;;;;;;;;;;;;;;;;10255249;28;19917;-65
2021/09/11 18:32:11;;;;;;;;;;;;;;;;;;10238543;28;20004;-65
2021/09/11 18:37:08;;;;;;;;;;;;;;;;;;10233436;28;19918;-65
2021/09/11 18:42:06;;;;;;;;;;;;;;;;;;10246989;28;19918;-65
2021/09/11 18:47:03;;;;;;;;;;;;;;;;;;10255168;28;19917;-65
2021/09/11 18:52:00;;;;;;;;;;;;;;;;;;10226941;28;19918;-65
2021/09/11 18:56:57;;;;;;;;;;;;;;;;;;10241863;28;20005;-65
2021/09/11 19:01:55;;;;;;;;;;;;;;;;;;10237099;28;19966;-64
2021/09/11 19:06:53;;;;;;;;;;;;;;;;;;10230019;28;19932;-64
2021/09/11 19:11:50;;;;;;;;;;;;;;;;;;10237176;28;19922;-65
2021/09/11 19:16:53;;;;;;;;;;;;;;;;;;10244832;28;19917;-65
2021/09/11 19:21:51;;;;;;;;;;;;;;;;;;10253720;28;19924;-65
2021/09/11 19:26:49;;;;;;;;;;;;;;;;;;10235285;28;19914;-64
2021/09/11 19:31:46;;;;;;;;;;;;;;;;;;10245982;28;20055;-66
2021/09/11 19:36:43;;;;;;;;;;;;;;;;;;10242913;28;19925;-66
2021/09/11 19:41:41;;;;;;;;;;;;;;;;;;10244732;28;19939;-66
2021/09/11 19:46:40;;;;;;;;;;;;;;;;;;10246148;28;20003;-64
2021/09/11 19:51:37;;;;;;;;;;;;;;;;;;10237631;28;19914;-65
2021/09/11 19:56:35;;;;;;;;;;;;;;;;;;10243160;28;20291;-65
2021/09/11 20:01:32;;;;;;;;;;;;;;;;;;10241686;28;19992;-65
2021/09/11 20:06:29;;;;;;;;;;;;;;;;;;10249642;28;19920;-66
2021/09/11 20:11:26;;;;;;;;;;;;;;;;;;10239438;28;19972;-65
2021/09/11 20:16:24;;;;;;;;;;;;;;;;;;10239000;28;19921;-66
2021/09/11 20:21:21;;;;;;;;;;;;;;;;;;10251506;28;20406;-65
2021/09/11 20:26:21;;;;;;;;;;;;;;;;;;10252370;28;19914;-65
2021/09/11 20:31:18;;;;;;;;;;;;;;;;;;10242627;28;19914;-67
2021/09/11 20:36:15;;;;;;;;;;;;;;;;;;10243335;28;20414;-64
2021/09/11 20:41:12;;;;;;;;;;;;;;;;;;10242537;28;19914;-66
2021/09/11 20:46:10;;;;;;;;;;;;;;;;;;10259039;28;19917;-65
2021/09/11 20:51:07;;;;;;;;;;;;;;;;;;10245826;28;19913;-66
2021/09/11 20:56:04;;;;;;;;;;;;;;;;;;10246914;28;20004;-65
2021/09/11 21:01:02;;;;;;;;;;;;;;;;;;10239659;28;19921;-64
2021/09/11 21:05:59;;;;;;;;;;;;;;;;;;10236879;28;20390;-65
2021/09/11 21:10:56;;;;;;;;;;;;;;;;;;10239524;28;19920;-66
2021/09/11 21:15:53;;;;;;;;;;;;;;;;;;10230370;28;20391;-65
2021/09/11 21:20:51;;;;;;;;;;;;;;;;;;10230017;28;20417;-66
2021/09/11 21:25:48;;;;;;;;;;;;;;;;;;10231082;28;19971;-64
2021/09/11 21:30:45;;;;;;;;;;;;;;;;;;10243185;28;19914;-65
2021/09/11 21:35:43;;;;;;;;;;;;;;;;;;10206150;28;1189189;-64
2021/09/11 21:40:40;;;;;;;;;;;;;;;;;;10243273;28;19913;-64
2021/09/11 21:45:37;;;;;;;;;;;;;;;;;;10235506;28;19920;-65
2021/09/11 21:50:34;;;;;;;;;;;;;;;;;;10233934;28;19976;-65
2021/09/11 21:55:32;;;;;;;;;;;;;;;;;;10235324;28;19921;-65
2021/09/11 22:00:29;;;;;;;;;;;;;;;;;;10243295;28;19918;-66
2021/09/11 22:05:26;;;;;;;;;;;;;;;;;;10229394;28;19921;-65
2021/09/11 22:10:24;;;;;;;;;;;;;;;;;;10233689;28;19921;-66
2021/09/11 22:15:21;;;;;;;;;;;;;;;;;;10232316;28;20371;-68
2021/09/11 22:20:19;;;;;;;;;;;;;;;;;;10220097;28;20031;-65
2021/09/11 22:25:16;;;;;;;;;;;;;;;;;;10241456;28;20434;-65
2021/09/11 22:30:13;;;;;;;;;;;;;;;;;;10234290;28;19918;-64
2021/09/11 22:35:11;;;;;;;;;;;;;;;;;;10259000;28;19924;-66
2021/09/11 22:40:08;;;;;;;;;;;;;;;;;;10238723;28;20454;-65
2021/09/11 22:45:05;;;;;;;;;;;;;;;;;;10247179;28;19919;-66
2021/09/11 22:50:02;;;;;;;;;;;;;;;;;;10236485;28;19917;-65
2021/09/11 22:55:00;;;;;;;;;;;;;;;;;;10238667;28;20011;-62
2021/09/11 22:59:57;;;;;;;;;;;;;;;;;;10243352;28;19940;-63
2021/09/11 23:04:54;;;;;;;;;;;;;;;;;;10245336;28;19919;-62
2021/09/11 23:09:51;;;;;;;;;;;;;;;;;;10251543;28;19922;-62
2021/09/11 23:14:49;;;;;;;;;;;;;;;;;;10238154;28;20299;-64
2021/09/11 23:19:46;;;;;;;;;;;;;;;;;;10239307;28;19914;-62
2021/09/11 23:24:43;;;;;;;;;;;;;;;;;;10245531;28;19967;-60
2021/09/11 23:29:40;;;;;;;;;;;;;;;;;;10241694;28;19937;-61
2021/09/11 23:34:38;;;;;;;;;;;;;;;;;;10247236;28;19927;-62
2021/09/11 23:39:35;;;;;;;;;;;;;;;;;;10220385;28;20434;-63
2021/09/11 23:44:32;;;;;;;;;;;;;;;;;;10249379;28;20322;-62
2021/09/11 23:49:29;;;;;;;;;;;;;;;;;;10232901;28;19996;-62
2021/09/11 23:54:27;;;;;;;;;;;;;;;;;;10246666;28;19917;-61
2021/09/11 23:59:24;;;;;;;;;;;;;;;;;;10251696;28;20366;-63
